首页
METAR-TAF:

METAR-TAF

机场 :

爱华隆机场, 澳大利亚

纬度: 38-02S, 经度: 144-29E, 海拔: 8米

当前天气观测

该预报发布于22分钟前的01:30 UTC
风速13节,风向西北
温度 16°C
湿度 55%
气压 1011 hPa
能见度10公里或以上
散云层高于3900英尺

METAR: YMAV 310130Z AUTO 31013KT 9999 // SCT039 16/07 Q1011 RF00.0/000.0

时间: 11:52 (01:52 UTC)

预报

该预报发布于2小时和33分钟前的23:19 UTC
预报有效从31日的 00点(UTC)到 01日的 00点(UTC)
风速10节,风向北转西北
能见度10公里或以上
少量云层高于4000英尺
从 31日的 1800点(UTC)
风速12节,风向
能见度10公里或以上
少量云层高于2500英尺
多云层高于3500英尺
小阵雨
从 31日的 2200点(UTC)
风速12节,风向西
能见度10公里或以上
散云层高于3000英尺
小阵雨

TAF: YMAV 302319Z 3100/0100 33010KT 9999 FEW040 FM311800 35012KT 9999 -SHRA FEW025 BKN035 FM312200 28012KT 9999 -SHRA SCT030

超过4000个机场的气象观测和天气预报(METAR&TAF报告)。

可查询的气象台以黄色和红色小点在地图上表示。

将鼠标移到小点上方,可查看气象台名称。

然后点击查看天气观测和预报。

如需切换地图:点击带黑十字的绿色按钮放大地图;点击带横线的绿色按钮缩小地图;或者点击绿色箭头查看邻近地区的地图。


METAR-TAF: